Time;durP1;ratioP1;P1;durP2;ratioP2;P2;SDS_P1;SDS_P2;PMS_P1;PMS_P2;Temp;Humidity;BMP_temperature;BMP_pressure;BME280_temperature;BME280_humidity;BME280_pressure;Samples;Min_cycle;Max_cycle;Signal;HPM_P1;HPM_P2
2023/06/03 00:00:50;;;;;;;17.90;12.50;;;;;;;;;;5058762;28;20393;-70
2023/06/03 00:03:16;;;;;;;16.88;11.43;;;;;;;;;;5037260;28;20036;-70
2023/06/03 00:05:42;;;;;;;19.63;12.20;;;;;;;;;;5059223;28;20667;-70
2023/06/03 00:08:07;;;;;;;16.33;11.93;;;;;;;;;;5045509;28;20112;-70
2023/06/03 00:10:32;;;;;;;19.63;12.82;;;;;;;;;;5054805;28;20042;-71
2023/06/03 00:12:57;;;;;;;20.20;11.68;;;;;;;;;;5054856;28;20119;-70
2023/06/03 00:15:23;;;;;;;16.60;11.77;;;;;;;;;;5039015;28;20024;-70
2023/06/03 00:17:48;;;;;;;15.17;11.80;;;;;;;;;;5045855;28;20025;-70
2023/06/03 00:20:13;;;;;;;17.83;11.47;;;;;;;;;;5056613;28;20035;-70
2023/06/03 00:22:39;;;;;;;17.58;11.32;;;;;;;;;;5057705;28;20028;-70
2023/06/03 00:25:07;;;;;;;17.52;11.48;;;;;;;;;;5057509;28;20029;-70
2023/06/03 00:27:32;;;;;;;19.27;12.48;;;;;;;;;;5058715;28;20078;-70
2023/06/03 00:29:57;;;;;;;18.43;11.60;;;;;;;;;;5054590;28;20021;-71
2023/06/03 00:32:23;;;;;;;19.53;12.50;;;;;;;;;;5055189;28;20779;-70
2023/06/03 00:34:48;;;;;;;19.13;11.27;;;;;;;;;;5058787;28;20106;-70
2023/06/03 00:37:13;;;;;;;18.00;11.83;;;;;;;;;;5054344;28;20612;-71
2023/06/03 00:39:38;;;;;;;47.80;11.60;;;;;;;16.06;nan;100204.13;5054021;28;20692;-71
2023/06/03 00:42:06;;;;;;;15.85;11.57;;;;;;;;;;5057100;28;20033;-71
2023/06/03 00:44:32;;;;;;;19.50;11.68;;;;;;;;;;5058109;28;20032;-70
2023/06/03 00:46:57;;;;;;;21.13;11.03;;;;;;;;;;5054970;28;20036;-70
2023/06/03 00:49:22;;;;;;;18.20;11.00;;;;;;;;;;5043609;28;20698;-71
2023/06/03 00:51:47;;;;;;;24.47;11.13;;;;;;;;;;5058686;28;20044;-71
2023/06/03 00:54:13;;;;;;;21.10;11.73;;;;;;;;;;5043667;28;20296;-71
2023/06/03 00:56:42;;;;;;;20.52;11.98;;;;;;;;;;5056773;28;20053;-71
2023/06/03 00:59:07;;;;;;;20.33;10.82;;;;;;;;;;5047708;28;20029;-72
2023/06/03 01:01:35;;;;;;;20.27;10.90;;;;;;;;;;5045740;28;20047;-71
2023/06/03 01:04:02;;;;;;;23.63;11.30;;;;;;;15.99;nan;100181.56;5059791;28;20037;-71
2023/06/03 01:06:34;;;;;;;27.13;11.70;;;;;;;;;;5060993;28;20063;-71
2023/06/03 01:09:03;;;;;;;17.70;11.35;;;;;;;;;;5058470;28;20034;-71
2023/06/03 01:11:47;;;;;;;18.20;10.97;;;;;;;;;;5061273;28;20063;-73
2023/06/03 01:14:17;;;;;;;20.48;10.93;;;;;;;;;;5060936;28;20029;-73
2023/06/03 01:16:44;;;;;;;22.33;10.65;;;;;;;;;;5043085;28;20730;-73
2023/06/03 01:19:26;;;;;;;16.73;10.40;;;;;;;;;;5058054;28;20020;-72
2023/06/03 01:21:53;;;;;;;19.13;10.57;;;;;;;;;;5060522;28;20052;-73
2023/06/03 01:24:18;;;;;;;20.25;11.38;;;;;;;;;;5058164;28;20087;-72
2023/06/03 01:26:43;;;;;;;16.48;12.00;;;;;;;;;;5059232;28;20024;-73
2023/06/03 01:29:09;;;;;;;20.93;11.07;;;;;;;;;;5058906;28;20027;-73
2023/06/03 01:31:34;;;;;;;16.58;10.93;;;;;;;;;;5058052;28;20376;-74
2023/06/03 01:33:59;;;;;;;18.23;11.52;;;;;;;;;;5059004;28;20051;-72
2023/06/03 01:36:25;;;;;;;19.67;11.80;;;;;;;;;;5058425;28;20033;-73
2023/06/03 01:38:50;;;;;;;22.60;11.77;;;;;;;;;;5061215;28;20158;-73
2023/06/03 01:41:15;;;;;;;19.55;11.40;;;;;;;;;;5057871;28;20399;-73
2023/06/03 01:43:41;;;;;;;22.20;11.40;;;;;;;;;;5058197;28;20040;-73
2023/06/03 01:46:06;;;;;;;19.83;10.67;;;;;;;;;;5056384;28;20043;-73
2023/06/03 01:48:31;;;;;;;27.10;11.83;;;;;;;;;;5056559;28;20296;-73
2023/06/03 01:50:57;;;;;;;17.48;11.73;;;;;;;;;;5059086;28;20775;-71
2023/06/03 01:53:22;;;;;;;18.80;10.77;;;;;;;;;;5058647;28;20127;-71
2023/06/03 01:55:47;;;;;;;20.40;11.63;;;;;;;;;;5059583;28;20265;-70
2023/06/03 01:58:12;;;;;;;25.33;11.77;;;;;;;;;;5049092;28;20137;-71
2023/06/03 02:00:38;;;;;;;26.50;11.87;;;;;;;;;;5057244;28;20438;-71
2023/06/03 02:03:03;;;;;;;20.67;12.13;;;;;;;;;;5060144;28;20098;-71
2023/06/03 02:05:29;;;;;;;17.57;11.90;;;;;;;;;;5058799;28;21085;-71
2023/06/03 02:07:54;;;;;;;19.95;12.45;;;;;;;;;;5059036;28;20033;-71
2023/06/03 02:10:19;;;;;;;21.60;11.30;;;;;;;;;;5046014;28;20051;-69
2023/06/03 02:12:45;;;;;;;17.87;11.47;;;;;;;;;;5058840;28;20075;-69
2023/06/03 02:15:10;;;;;;;19.90;11.70;;;;;;;;;;5059084;28;20032;-69
2023/06/03 02:17:36;;;;;;;20.67;10.82;;;;;;;;;;5060008;28;20024;-69
2023/06/03 02:20:01;;;;;;;23.73;10.95;;;;;;;;;;5060431;28;20039;-70
2023/06/03 02:22:27;;;;;;;20.77;10.55;;;;;;;;;;5056074;28;20017;-70
2023/06/03 02:24:53;;;;;;;13.57;9.33;;;;;;;;;;5058615;28;20067;-70
2023/06/03 02:27:19;;;;;;;13.15;9.07;;;;;;;;;;5058094;28;20056;-71
2023/06/03 02:29:50;;;;;;;21.55;10.32;;;;;;;;;;5055608;28;20616;-69
2023/06/03 02:32:15;;;;;;;17.48;9.88;;;;;;;;;;5040226;28;20112;-70
2023/06/03 02:34:40;;;;;;;13.10;9.13;;;;;;;;;;5057448;28;20123;-68
2023/06/03 02:37:06;;;;;;;19.07;9.07;;;;;;;;;;5055984;28;20115;-69
2023/06/03 02:39:31;;;;;;;19.90;10.63;;;;;;;;;;5055949;28;20074;-70
2023/06/03 02:41:57;;;;;;;19.70;10.77;;;;;;;;;;5057365;28;20738;-69
2023/06/03 02:44:22;;;;;;;14.90;10.00;;;;;;;;;;5054370;28;20024;-70
2023/06/03 02:46:47;;;;;;;19.97;10.53;;;;;;;;;;5058279;28;20353;-69
2023/06/03 02:49:12;;;;;;;16.30;11.03;;;;;;;;;;5057696;28;20093;-69
2023/06/03 02:51:40;;;;;;;16.25;10.07;;;;;;;;;;5058303;28;20277;-70
2023/06/03 02:54:05;;;;;;;17.90;10.50;;;;;;;;;;5057739;28;20086;-70
2023/06/03 02:56:30;;;;;;;17.23;9.43;;;;;;;;;;5057501;28;20049;-70
2023/06/03 02:58:55;;;;;;;13.03;8.73;;;;;;;;;;5055631;28;20896;-69
2023/06/03 03:01:22;;;;;;;16.53;9.27;;;;;;;;;;5056636;28;20032;-70
2023/06/03 03:03:47;;;;;;;20.98;9.35;;;;;;;;;;5058350;28;20032;-71
2023/06/03 03:06:15;;;;;;;15.38;10.02;;;;;;;;;;5058457;28;20551;-70
2023/06/03 03:08:41;;;;;;;19.17;9.23;;;;;;;;;;5041156;28;20043;-70
2023/06/03 03:11:09;;;;;;;18.42;8.45;;;;;;;;;;5060436;28;20024;-70
2023/06/03 03:13:34;;;;;;;17.08;9.20;;;;;;;;;;5054938;28;20544;-70
2023/06/03 03:15:59;;;;;;;18.35;10.43;;;;;;;;;;5047367;28;20111;-70
2023/06/03 03:18:24;;;;;;;16.33;10.07;;;;;;;;;;5057675;28;20021;-70
2023/06/03 03:20:50;;;;;;;23.55;10.30;;;;;;;;;;5044721;28;20036;-70
2023/06/03 03:23:15;;;;;;;16.87;10.33;;;;;;;;;;5057149;28;20039;-69
2023/06/03 03:25:41;;;;;;;22.13;10.30;;;;;;;;;;5054734;28;20289;-69
2023/06/03 03:28:06;;;;;;;16.70;10.07;;;;;;;;;;5055388;28;20037;-69
2023/06/03 03:30:32;;;;;;;15.57;10.05;;;;;;;;;;5055660;28;20033;-70
2023/06/03 03:32:59;;;;;;;21.90;11.05;;;;;;;;;;5057156;28;20033;-70
2023/06/03 03:35:24;;;;;;;16.67;10.15;;;;;;;;;;5055300;28;20029;-72
2023/06/03 03:37:55;;;;;;;18.98;10.25;;;;;;;;;;5039156;28;20029;-72
2023/06/03 03:40:22;;;;;;;19.35;10.57;;;;;;;;;;5036990;28;20115;-72
2023/06/03 03:42:48;;;;;;;14.95;10.20;;;;;;;;;;5054261;28;20363;-72
2023/06/03 03:45:18;;;;;;;19.50;9.60;;;;;;;;;;5056955;28;20023;-70
2023/06/03 03:47:43;;;;;;;;;;;;;;;;;;5040964;28;20024;-70
2023/06/03 03:50:34;;;;;;;16.63;10.03;;;;;;;;;;5056278;28;19924;-70
2023/06/03 03:53:01;;;;;;;18.80;10.13;;;;;;;;;;5038395;28;20071;-72
2023/06/03 03:55:27;;;;;;;16.30;10.25;;;;;;;;;;5054511;28;20426;-71
2023/06/03 03:57:52;;;;;;;29.95;11.40;;;;;;;;;;5053320;28;20110;-72
2023/06/03 04:00:19;;;;;;;19.95;12.40;;;;;;;;;;5056450;28;20020;-72
2023/06/03 04:02:46;;;;;;;24.52;14.05;;;;;;;15.49;nan;100229.00;5053959;28;20036;-72
2023/06/03 04:05:13;;;;;;;23.92;13.70;;;;;;;;;;5054873;28;20437;-73
2023/06/03 04:07:39;;;;;;;21.20;12.43;;;;;;;;;;5056114;28;20491;-71
2023/06/03 04:10:09;;;;;;;18.45;12.43;;;;;;;;;;5058604;28;20063;-72
2023/06/03 04:12:36;;;;;;;19.33;12.02;;;;;;;;;;5056437;28;20032;-73
2023/06/03 04:15:02;;;;;;;18.42;11.23;;;;;;;;;;5056262;28;20504;-73
2023/06/03 04:17:27;;;;;;;19.10;11.45;;;;;;;;;;5058416;28;20033;-73
2023/06/03 04:19:52;;;;;;;20.83;11.98;;;;;;;;;;5045879;28;20075;-72
2023/06/03 04:22:20;;;;;;;19.70;12.03;;;;;;;;;;5058841;28;20035;-74
2023/06/03 04:24:45;;;;;;;20.20;11.25;;;;;;;;;;5061836;28;20334;-72
2023/06/03 04:27:12;;;;;;;26.77;11.68;;;;;;;16.06;nan;100313.03;5060102;28;20033;-72
2023/06/03 04:29:38;;;;;;;14.93;10.85;;;;;;;16.12;nan;100308.56;5063294;28;20111;-73
2023/06/03 04:32:04;;;;;;;19.13;11.02;;;;;;;16.10;nan;100298.19;5059244;28;20095;-73
2023/06/03 04:34:30;;;;;;;20.00;11.50;;;;;;;16.23;nan;100304.81;5057780;28;20082;-72
2023/06/03 04:36:56;;;;;;;18.55;11.85;;;;;;;16.34;nan;100316.28;5062858;28;20024;-70
2023/06/03 04:39:21;;;;;;;18.45;11.77;;;;;;;16.29;nan;100297.66;5059891;28;20434;-71
2023/06/03 04:41:46;;;;;;;19.08;11.65;;;;;;;16.54;nan;100318.13;5045094;28;20024;-73
2023/06/03 04:44:13;;;;;;;14.52;10.25;;;;;;;16.42;nan;100302.44;5060643;28;20028;-71
2023/06/03 04:46:39;;;;;;;15.48;10.52;;;;;;;16.73;nan;100329.03;5043256;28;20505;-73
2023/06/03 04:49:08;;;;;;;14.50;9.80;;;;;;;16.75;nan;100318.91;5059794;28;20387;-70
2023/06/03 04:51:34;;;;;;;21.13;10.35;;;;;;;16.83;nan;100328.25;5057755;28;20032;-70
2023/06/03 04:54:00;;;;;;;13.40;9.90;;;;;;;16.82;nan;100329.31;5057575;28;20025;-70
2023/06/03 04:56:29;;;;;;;16.60;10.30;;;;;;;16.81;nan;100328.53;5057179;28;20056;-71
2023/06/03 04:58:55;;;;;;;15.07;9.30;;;;;;;16.82;nan;100316.81;5058847;28;20443;-71
2023/06/03 05:01:23;;;;;;;13.57;9.55;;;;;;;16.90;nan;100336.75;5061690;28;20450;-71
2023/06/03 05:03:48;;;;;;;13.85;8.82;;;;;;;16.94;nan;100335.16;5059770;28;20036;-71
2023/06/03 05:06:14;;;;;;;15.70;8.60;;;;;;;16.86;nan;100312.56;5057322;28;20047;-71
2023/06/03 05:08:40;;;;;;;16.05;8.75;;;;;;;16.98;nan;100345.00;5040216;28;20463;-71
2023/06/03 05:11:05;;;;;;;21.23;8.65;;;;;;;16.96;nan;100333.81;5059426;28;20028;-71
2023/06/03 05:13:31;;;;;;;18.08;9.07;;;;;;;16.97;nan;100323.97;5061726;28;20037;-71
2023/06/03 05:15:57;;;;;;;17.13;9.45;;;;;;;17.10;nan;100344.69;5059191;28;20028;-73
2023/06/03 05:18:23;;;;;;;15.82;9.40;;;;;;;17.06;nan;100348.16;5061131;28;20654;-73
2023/06/03 05:20:48;;;;;;;14.02;9.27;;;;;;;16.93;nan;100354.84;5033929;28;20029;-73
2023/06/03 05:23:13;;;;;;;20.30;9.80;;;;;;;16.88;nan;100346.84;5059777;28;20029;-73
2023/06/03 05:25:39;;;;;;;22.20;10.48;;;;;;;16.89;nan;100357.22;5048949;28;20083;-72
2023/06/03 05:28:05;;;;;;;20.95;10.40;;;;;;;16.92;nan;100363.88;5061683;28;20121;-70
2023/06/03 05:30:31;;;;;;;18.88;9.10;;;;;;;16.83;nan;100341.53;5059296;28;20028;-70
2023/06/03 05:32:56;;;;;;;15.45;8.68;;;;;;;16.77;nan;100346.84;5059757;28;20528;-70
2023/06/03 05:35:22;;;;;;;13.00;8.90;;;;;;;16.76;nan;100363.88;5057978;28;20020;-71
2023/06/03 05:37:47;;;;;;;14.48;9.43;;;;;;;16.92;nan;100374.50;5058956;28;20036;-71
2023/06/03 05:40:13;;;;;;;21.52;8.50;;;;;;;16.95;nan;100376.63;5059414;28;20025;-72
2023/06/03 05:42:38;;;;;;;13.80;8.60;;;;;;;16.85;nan;100358.81;5049946;28;20043;-73
2023/06/03 05:45:04;;;;;;;15.88;8.55;;;;;;;16.90;nan;100372.09;5058809;28;20029;-73
2023/06/03 05:47:29;;;;;;;15.40;8.48;;;;;;;16.79;nan;100368.66;5057136;28;20031;-73
2023/06/03 05:49:55;;;;;;;16.35;8.98;;;;;;;16.84;nan;100372.41;5058125;28;20032;-72
2023/06/03 05:52:20;;;;;;;16.73;9.20;;;;;;;16.94;nan;100383.81;5059237;28;20376;-73
2023/06/03 05:54:46;;;;;;;15.02;8.55;;;;;;;16.95;nan;100393.41;5059019;28;20025;-72
2023/06/03 05:57:11;;;;;;;18.17;8.50;;;;;;;17.03;nan;100380.63;5056671;28;20143;-73
2023/06/03 05:59:37;;;;;;;11.65;8.05;;;;;;;17.08;nan;100389.41;5059169;28;20042;-72
2023/06/03 06:02:02;;;;;;;14.88;8.70;;;;;;;16.97;nan;100366.53;5059249;28;20736;-71
2023/06/03 06:04:28;;;;;;;18.95;8.38;;;;;;;17.15;nan;100389.91;5058793;28;20107;-71
2023/06/03 06:06:53;;;;;;;14.60;8.98;;;;;;;17.17;nan;100390.44;5058421;28;20060;-71
2023/06/03 06:09:19;;;;;;;13.13;8.18;;;;;;;17.11;nan;100378.22;5044560;28;20485;-71
2023/06/03 06:11:44;;;;;;;11.15;7.85;;;;;;;17.19;nan;100395.47;5057452;28;20148;-69
2023/06/03 06:14:11;;;;;;;15.07;7.88;;;;;;;17.26;nan;100405.84;5059493;28;20036;-70
2023/06/03 06:16:36;;;;;;;14.02;8.23;;;;;;;17.27;nan;100397.63;5059583;28;20035;-72
2023/06/03 06:19:01;;;;;;;13.80;7.75;;;;;;;17.18;nan;100397.34;5046679;28;20048;-70
2023/06/03 06:21:27;;;;;;;16.50;8.07;;;;;;;17.19;nan;100393.66;5039436;28;20552;-69
2023/06/03 06:23:52;;;;;;;14.88;8.25;;;;;;;17.34;nan;100405.34;5056298;28;20059;-70
2023/06/03 06:26:18;;;;;;;13.65;7.95;;;;;;;17.28;nan;100388.56;5054479;28;20028;-70
2023/06/03 06:28:45;;;;;;;16.30;7.47;;;;;;;17.37;nan;100402.13;5055740;28;20048;-72
2023/06/03 06:31:12;;;;;;;16.83;8.10;;;;;;;17.35;nan;100394.41;5058877;28;20533;-70
2023/06/03 06:33:38;;;;;;;14.57;7.95;;;;;;;17.49;nan;100402.63;5042145;28;20037;-71
2023/06/03 06:36:17;;;;;;;18.90;7.85;;;;;;;17.54;nan;100409.78;5057811;28;20032;-70
2023/06/03 06:38:42;;;;;;;14.33;8.13;;;;;;;17.53;nan;100406.34;5055848;28;20021;-71
2023/06/03 06:41:12;;;;;;;13.55;7.75;;;;;;;17.51;nan;100413.78;5059284;28;20027;-70
2023/06/03 06:43:39;;;;;;;11.40;7.68;;;;;;;17.51;nan;100403.16;5058927;28;20441;-71
2023/06/03 06:46:05;;;;;;;14.85;8.15;;;;;;;17.67;nan;100405.75;5057917;28;20502;-70
2023/06/03 06:48:34;;;;;;;14.98;8.38;;;;;;;17.72;nan;100403.06;5056933;28;20045;-72
2023/06/03 06:51:00;;;;;;;13.03;8.43;;;;;;;17.80;nan;100411.34;5045974;28;20831;-75
2023/06/03 06:53:27;;;;;;;16.33;8.38;;;;;;;17.76;nan;100398.78;5058335;28;20316;-74
2023/06/03 06:55:52;;;;;;;14.93;7.88;;;;;;;17.91;nan;100413.94;5055789;28;20078;-74
2023/06/03 06:58:18;;;;;;;16.27;8.80;;;;;;;17.88;nan;100407.28;5058645;28;20040;-73
2023/06/03 07:00:44;;;;;;;17.02;8.10;;;;;;;18.00;nan;100418.44;5054833;28;20399;-74
2023/06/03 07:03:13;;;;;;;15.27;7.50;;;;;;;17.97;nan;100404.88;5057260;28;20029;-74
2023/06/03 07:05:39;;;;;;;13.13;7.72;;;;;;;17.79;nan;100379.59;5038545;28;20035;-74
2023/06/03 07:08:05;;;;;;;14.45;8.15;;;;;;;18.07;nan;100413.59;5055031;28;20025;-74
2023/06/03 07:10:31;;;;;;;13.20;7.53;;;;;;;18.05;nan;100406.94;5061147;28;21838;-74
2023/06/03 07:12:57;;;;;;;15.27;7.97;;;;;;;18.17;nan;100415.44;5061586;28;20107;-74
2023/06/03 07:15:23;;;;;;;15.88;8.10;;;;;;;17.96;nan;100379.31;5039950;28;20025;-73
2023/06/03 07:17:50;;;;;;;13.88;8.15;;;;;;;18.09;nan;100405.34;5056310;28;20024;-74
2023/06/03 07:20:19;;;;;;;16.45;7.90;;;;;;;18.22;nan;100419.91;5055538;28;20070;-73
2023/06/03 07:22:45;;;;;;;;;;;;;;;18.26;nan;100429.75;5057002;28;20029;-73
2023/06/03 07:25:24;;;;;;;15.52;8.25;;;;;;;18.27;nan;100427.91;5055794;28;20015;-74
2023/06/03 07:27:50;;;;;;;14.75;7.70;;;;;;;18.37;nan;100427.84;5054351;28;20033;-74
2023/06/03 07:30:16;;;;;;;13.68;7.63;;;;;;;18.44;nan;100436.34;5056167;28;20743;-77
2023/06/03 07:32:43;;;;;;;17.25;7.75;;;;;;;18.50;nan;100431.75;5056760;28;20498;-75
2023/06/03 07:35:08;;;;;;;15.32;7.47;;;;;;;18.55;nan;100434.38;5058523;28;20029;-77
2023/06/03 07:37:35;;;;;;;16.63;8.35;;;;;;;18.60;nan;100433.56;5057651;28;20031;-75
2023/06/03 07:40:00;;;;;;;17.70;7.65;;;;;;;18.67;nan;100440.16;5054069;28;20032;-79
2023/06/03 07:42:27;;;;;;;13.57;8.05;;;;;;;18.78;nan;100432.94;5048656;28;20523;-77
2023/06/03 07:44:55;;;;;;;13.15;7.45;;;;;;;18.75;nan;100425.47;5065228;28;20051;-76
2023/06/03 07:47:20;;;;;;;13.60;7.45;;;;;;;18.82;nan;100425.97;5060014;28;20667;-77
2023/06/03 07:49:48;;;;;;;15.45;7.32;;;;;;;18.94;nan;100446.13;5045579;28;20031;-76
2023/06/03 07:52:23;;;;;;;12.80;6.82;;;;;;;18.94;nan;100438.94;5060761;28;20094;-77
2023/06/03 07:54:49;;;;;;;18.10;6.78;;;;;;;19.04;nan;100449.53;5044857;28;20399;-77
2023/06/03 07:57:15;;;;;;;13.90;7.78;;;;;;;19.09;nan;100446.03;5065447;28;20041;-77
2023/06/03 07:59:55;;;;;;;11.00;6.68;;;;;;;19.16;nan;100443.81;5059981;28;20117;-78
2023/06/03 08:02:21;;;;;;;13.10;7.30;;;;;;;19.19;nan;100447.81;5064512;28;20028;-76
2023/06/03 08:04:46;;;;;;;13.18;6.13;;;;;;;19.18;nan;100439.00;5039975;28;20033;-77
2023/06/03 08:07:13;;;;;;;13.52;6.35;;;;;;;19.19;nan;100453.13;5063808;28;20382;-76
2023/06/03 08:09:40;;;;;;;9.23;6.03;;;;;;;19.22;nan;100455.25;5058129;28;20029;-79
2023/06/03 08:12:07;;;;;;;9.80;6.55;;;;;;;19.28;nan;100448.78;5056852;28;20025;-76
2023/06/03 08:14:35;;;;;;;11.05;7.10;;;;;;;19.32;nan;100452.47;5067264;28;20457;-76
2023/06/03 08:17:09;;;;;;;11.43;6.63;;;;;;;19.42;nan;100456.91;5047754;28;20039;-78
2023/06/03 08:19:35;;;;;;;14.85;7.35;;;;;;;19.54;nan;100425.28;5055954;28;20029;-75
2023/06/03 08:22:00;;;;;;;14.48;7.32;;;;;;;19.74;nan;100395.69;5058476;28;20478;-76
2023/06/03 08:24:25;;;;;;;12.65;7.03;;;;;;;19.75;nan;100348.38;5057387;28;20510;-75
2023/06/03 08:26:51;;;;;;;13.63;7.00;;;;;;;;;;5058930;28;20028;-76
2023/06/03 08:29:16;;;;;;;9.27;5.80;;;;;;;19.79;nan;100410.06;5057074;28;20549;-76
2023/06/03 08:31:41;;;;;;;12.70;6.72;;;;;;;19.83;nan;100454.66;5043205;28;20349;-76
2023/06/03 08:34:07;;;;;;;11.20;6.10;;;;;;;20.00;nan;100357.16;5056848;28;20029;-75
2023/06/03 08:36:33;;;;;;;11.48;5.53;;;;;;;20.11;nan;100406.72;5056810;28;20097;-77
2023/06/03 08:38:58;;;;;;;11.60;6.07;;;;;;;20.07;nan;100346.91;5055944;28;20389;-75
2023/06/03 08:41:26;;;;;;;8.20;5.72;;;;;;;20.11;nan;100367.41;5058467;28;20027;-75
2023/06/03 08:44:09;;;;;;;15.68;6.38;;;;;;;20.21;nan;100461.91;5057264;28;20032;-75
2023/06/03 08:46:46;;;;;;;12.80;5.72;;;;;;;20.26;nan;100472.56;5050639;28;20450;-75
2023/06/03 08:49:13;;;;;;;10.18;5.57;;;;;;;;;;5061153;28;20391;-76
2023/06/03 08:51:41;;;;;;;9.90;5.95;;;;;;;20.26;nan;100435.94;5041681;28;20044;-76
2023/06/03 08:54:13;;;;;;;9.13;5.38;;;;;;;20.30;nan;100428.09;5056319;28;20024;-77
2023/06/03 08:56:44;;;;;;;11.50;5.30;;;;;;;20.33;nan;100409.63;5054472;28;20114;-75
2023/06/03 08:59:15;;;;;;;12.02;5.68;;;;;;;20.34;nan;100538.78;5055726;28;20017;-76
2023/06/03 09:01:44;;;;;;;9.65;5.28;;;;;;;20.38;nan;100428.25;5053370;28;20035;-76
2023/06/03 09:04:12;;;;;;;8.35;5.43;;;;;;;20.45;nan;100427.09;5056275;28;20035;-75
2023/06/03 09:06:43;;;;;;;9.48;5.25;;;;;;;;;;5056543;28;20064;-78
2023/06/03 09:09:10;;;;;;;10.68;5.40;;;;;;;20.54;nan;100367.31;5039659;28;20032;-76
2023/06/03 09:11:36;;;;;;;8.23;5.15;;;;;;;20.68;nan;100430.78;5055992;28;20029;-75
2023/06/03 09:14:02;;;;;;;9.80;5.68;;;;;;;20.69;nan;100377.00;5057929;28;20028;-75
2023/06/03 09:16:27;;;;;;;10.13;5.60;;;;;;;20.75;nan;100431.22;5060259;28;20056;-75
2023/06/03 09:18:53;;;;;;;10.25;5.35;;;;;;;20.79;nan;100421.53;5059686;28;20116;-75
2023/06/03 09:21:19;;;;;;;9.95;5.68;;;;;;;20.82;nan;100394.16;5043889;28;20522;-75
2023/06/03 09:23:44;;;;;;;10.20;5.20;;;;;;;20.81;nan;100457.63;5060180;28;20031;-75
2023/06/03 09:26:10;;;;;;;11.32;5.53;;;;;;;20.93;nan;100491.16;5056086;28;20068;-75
2023/06/03 09:28:38;;;;;;;7.47;5.60;;;;;;;21.07;nan;100416.22;5046443;28;20099;-74
2023/06/03 09:31:05;;;;;;;11.20;6.47;;;;;;;21.22;nan;100478.34;5042487;28;20174;-75
2023/06/03 09:33:31;;;;;;;10.43;5.45;;;;;;;21.24;nan;100413.78;5045959;28;20036;-75
2023/06/03 09:36:10;;;;;;;14.75;8.30;;;;;;;21.32;nan;100421.13;5042448;28;20029;-76
2023/06/03 09:38:48;;;;;;;9.73;6.78;;;;;;;21.34;nan;100477.88;5060254;28;20024;-75
2023/06/03 09:41:25;;;;;;;14.95;5.30;;;;;;;;;;5056855;28;20082;-73
2023/06/03 09:43:54;;;;;;;11.55;5.70;;;;;;;21.58;nan;100432.19;5061631;28;20434;-73
2023/06/03 09:46:20;;;;;;;7.78;4.68;;;;;;;21.64;nan;100424.84;5059226;28;20451;-74
2023/06/03 09:48:45;;;;;;;6.93;4.97;;;;;;;21.59;nan;100465.16;5061685;28;20060;-73
2023/06/03 09:51:11;;;;;;;12.45;5.07;;;;;;;21.60;nan;100472.09;5061353;28;20036;-74
2023/06/03 09:53:37;;;;;;;7.82;4.63;;;;;;;21.68;nan;100417.81;5043513;28;20448;-74
2023/06/03 09:56:26;;;;;;;9.27;4.63;;;;;;;21.75;nan;100428.91;5057958;28;20401;-73
2023/06/03 09:59:31;;;;;;;8.35;4.82;;;;;;;21.74;nan;100475.59;5057672;28;20032;-73
2023/06/03 10:01:56;;;;;;;6.47;4.55;;;;;;;21.84;nan;100402.22;5058949;28;20036;-73
2023/06/03 10:04:44;;;;;;;9.48;5.13;;;;;;;21.81;nan;100387.53;5046304;28;20024;-73
2023/06/03 10:07:11;;;;;;;8.75;4.55;;;;;;;21.86;nan;100414.22;5040557;28;20451;-74
2023/06/03 10:09:37;;;;;;;7.95;4.70;;;;;;;21.76;nan;100406.38;5045210;28;20039;-73
2023/06/03 10:12:03;;;;;;;8.68;4.38;;;;;;;21.88;nan;100408.53;5060392;28;20051;-74
2023/06/03 10:14:29;;;;;;;11.75;4.65;;;;;;;22.03;nan;100412.81;5058297;28;20024;-73
2023/06/03 10:17:07;;;;;;;12.70;4.80;;;;;;;22.11;nan;100409.41;5058830;28;20119;-74
2023/06/03 10:19:33;;;;;;;6.70;4.80;;;;;;;;;;5059034;28;20039;-73
2023/06/03 10:21:59;;;;;;;9.30;4.35;;;;;;;22.20;nan;100398.75;5059205;28;20032;-74
2023/06/03 10:24:27;;;;;;;9.40;4.03;;;;;;;22.22;nan;100451.03;5045824;28;20664;-74
2023/06/03 10:26:54;;;;;;;7.18;4.90;;;;;;;22.33;nan;100411.34;5057890;28;20059;-74
2023/06/03 10:29:20;;;;;;;7.20;4.68;;;;;;;22.32;nan;100446.53;5061315;28;20031;-74
2023/06/03 10:31:49;;;;;;;9.15;5.03;;;;;;;22.37;nan;100467.91;5060457;28;20028;-76
2023/06/03 10:34:15;;;;;;;12.75;5.00;;;;;;;22.36;nan;100402.69;5057973;28;20103;-75
2023/06/03 10:36:48;;;;;;;8.95;4.55;;;;;;;22.36;nan;100444.81;5053604;28;20033;-75
2023/06/03 10:39:14;;;;;;;9.15;4.57;;;;;;;22.41;nan;100399.91;5056117;28;20437;-75
2023/06/03 10:41:41;;;;;;;13.10;4.95;;;;;;;22.52;nan;100398.56;5057484;28;20029;-76
2023/06/03 10:44:07;;;;;;;10.32;4.28;;;;;;;22.57;nan;100407.59;5058678;28;20028;-76
2023/06/03 10:46:35;;;;;;;9.15;4.63;;;;;;;22.63;nan;100396.44;5058646;28;20425;-75
2023/06/03 10:49:06;;;;;;;10.00;4.20;;;;;;;22.70;nan;100398.69;5060324;28;20036;-75
2023/06/03 10:51:31;;;;;;;8.32;4.07;;;;;;;22.77;nan;100403.59;5057043;28;20035;-75
2023/06/03 10:54:45;;;;;;;8.80;4.20;;;;;;;22.84;nan;100417.38;5059049;28;20024;-75
2023/06/03 10:57:14;;;;;;;7.28;3.92;;;;;;;22.81;nan;100402.69;4949221;28;20370;-74
2023/06/03 10:59:45;;;;;;;8.00;4.00;;;;;;;22.84;nan;100420.06;4966244;28;20034;-74
2023/06/03 11:02:11;;;;;;;7.65;3.80;;;;;;;22.88;nan;100373.50;4965441;28;20429;-74
2023/06/03 11:04:38;;;;;;;9.75;3.67;;;;;;;22.91;nan;100409.69;4965271;28;20039;-74
2023/06/03 11:07:04;;;;;;;10.07;4.00;;;;;;;;;;4966721;28;20045;-76
2023/06/03 11:09:30;;;;;;;7.60;4.43;;;;;;;22.98;nan;100402.03;4964560;28;20046;-75
2023/06/03 11:12:04;;;;;;;11.23;3.90;;;;;;;22.94;nan;100353.50;4964135;28;20034;-76
2023/06/03 11:14:29;;;;;;;10.40;4.55;;;;;;;23.00;nan;100424.00;4954997;28;20065;-76
2023/06/03 11:16:57;;;;;;;15.20;4.85;;;;;;;22.98;nan;100410.06;4949276;28;20481;-76
2023/06/03 11:19:33;;;;;;;6.20;3.80;;;;;;;23.05;nan;100406.97;4967032;28;20050;-75
2023/06/03 11:21:59;;;;;;;10.52;4.40;;;;;;;23.12;nan;100397.34;4964020;28;20030;-76
2023/06/03 11:24:42;;;;;;;7.70;4.10;;;;;;;23.13;nan;100420.44;4950936;28;20030;-76
2023/06/03 11:27:17;;;;;;;11.68;4.32;;;;;;;23.18;nan;100399.91;4965067;28;20189;-73
2023/06/03 11:29:48;;;;;;;9.27;3.92;;;;;;;23.26;nan;100413.38;4965741;28;20113;-73
2023/06/03 11:32:24;;;;;;;7.15;4.32;;;;;;;23.25;nan;100408.31;4968248;28;20470;-73
2023/06/03 11:35:10;;;;;;;6.90;3.70;;;;;;;23.27;nan;100411.47;5057204;28;20029;-73
2023/06/03 11:37:43;;;;;;;7.18;3.92;;;;;;;23.26;nan;100461.75;5055242;28;20398;-74
2023/06/03 11:40:17;;;;;;;10.05;3.72;;;;;;;23.25;nan;100459.34;5057875;28;20031;-74
2023/06/03 11:42:51;;;;;;;6.75;3.75;;;;;;;23.35;nan;100448.34;5054259;28;20078;-74
2023/06/03 11:45:20;;;;;;;11.63;4.00;;;;;;;23.40;nan;100453.59;5058033;28;20498;-74
2023/06/03 11:47:59;;;;;;;8.88;3.78;;;;;;;23.38;nan;100457.69;5055003;28;20024;-74
2023/06/03 11:50:26;;;;;;;9.23;3.92;;;;;;;23.42;nan;100450.59;5047197;28;20047;-73
2023/06/03 11:52:52;;;;;;;6.00;3.47;;;;;;;23.41;nan;100440.94;5039599;28;20029;-74
2023/06/03 11:55:36;;;;;;;8.13;3.90;;;;;;;23.38;nan;100441.56;5058419;28;20790;-74
2023/06/03 11:58:11;;;;;;;6.82;3.60;;;;;;;23.36;nan;100429.22;5059821;28;20045;-74
2023/06/03 12:00:40;;;;;;;12.13;3.90;;;;;;;23.45;nan;100453.47;5058146;28;20024;-74
2023/06/03 12:03:12;;;;;;;7.47;3.75;;;;;;;23.42;nan;100443.34;5044622;28;20098;-74
2023/06/03 12:05:52;;;;;;;10.60;4.18;;;;;;;23.56;nan;100433.28;5059507;28;20535;-74
2023/06/03 12:08:17;;;;;;;7.53;4.18;;;;;;;23.45;nan;100421.19;5037106;28;20058;-74
2023/06/03 12:10:44;;;;;;;8.23;3.90;;;;;;;23.60;nan;100432.63;5037671;28;20031;-74
2023/06/03 12:13:09;;;;;;;10.88;4.22;;;;;;;23.50;nan;100423.75;5040534;28;20108;-77
2023/06/03 12:15:36;;;;;;;5.72;3.50;;;;;;;23.59;nan;100429.16;5058099;28;20111;-74
2023/06/03 12:18:04;;;;;;;5.22;3.20;;;;;;;23.54;nan;100418.56;5055914;28;20572;-74
2023/06/03 12:20:30;;;;;;;9.47;5.43;;;;;;;23.64;nan;100422.84;5058666;28;20562;-74
2023/06/03 12:23:00;;;;;;;7.57;4.18;;;;;;;23.66;nan;100420.66;5038383;28;20039;-77
2023/06/03 12:25:26;;;;;;;6.70;3.60;;;;;;;23.77;nan;100435.41;5059534;28;20032;-78
2023/06/03 12:27:51;;;;;;;9.07;3.50;;;;;;;23.69;nan;100436.16;5056643;28;20573;-78
2023/06/03 12:30:33;;;;;;;6.10;3.58;;;;;;;23.81;nan;100447.13;5036979;28;20124;-77